createdAt,value
2022-11-03T00:01:12.264Z,101145.31
2022-11-03T00:17:24.661Z,101129.31
2022-11-03T00:19:51.142Z,101115.97
2022-11-03T00:22:17.430Z,101119.34
2022-11-03T00:24:43.746Z,101121.38
2022-11-03T00:27:10.141Z,101111.03
2022-11-03T00:29:36.541Z,101113.56
2022-11-03T00:32:02.861Z,101114.53
2022-11-03T00:34:29.131Z,101112.34
2022-11-03T00:36:55.569Z,101106.75
2022-11-03T00:39:22.029Z,101103.00
2022-11-03T00:41:48.491Z,101113.16
2022-11-03T00:44:14.855Z,101098.81
2022-11-03T00:46:41.301Z,101107.75
2022-11-03T00:49:07.563Z,101097.94
2022-11-03T00:51:37.106Z,101093.56
2022-11-03T00:54:04.340Z,101092.19
2022-11-03T00:56:35.302Z,101083.69
2022-11-03T00:59:02.208Z,101077.63
2022-11-03T01:01:31.335Z,101081.34
2022-11-03T01:04:17.186Z,101083.03
2022-11-03T01:06:51.233Z,101071.34
2022-11-03T01:09:17.630Z,101078.94
2022-11-03T01:11:50.205Z,101074.19
2022-11-03T01:14:17.137Z,101078.94
2022-11-03T01:16:43.615Z,101068.47
2022-11-03T01:19:10.239Z,101068.47
2022-11-03T01:21:36.675Z,101068.09
2022-11-03T01:24:03.815Z,101066.78
2022-11-03T01:26:30.851Z,101063.44
2022-11-03T01:28:58.720Z,101056.28
2022-11-03T01:31:25.409Z,101058.97
2022-11-03T01:33:52.645Z,101056.91
2022-11-03T01:36:19.484Z,101054.22
2022-11-03T01:38:46.046Z,101045.44
2022-11-03T01:41:14.521Z,101045.28
2022-11-03T01:43:41.479Z,101032.09
2022-11-03T01:46:13.599Z,101037.31
2022-11-03T01:48:42.871Z,101034.31
2022-11-03T01:51:11.073Z,101037.88
2022-11-03T01:53:42.399Z,101036.38
2022-11-03T01:56:10.399Z,101022.63
2022-11-03T01:58:39.290Z,101020.78
2022-11-03T02:01:05.687Z,101005.56
2022-11-03T02:03:35.295Z,101002.69
2022-11-03T02:06:02.756Z,101000.44
2022-11-03T02:08:32.173Z,100998.28
2022-11-03T02:10:58.653Z,100997.09
2022-11-03T02:13:26.348Z,100995.38
2022-11-03T02:15:54.562Z,100991.00
2022-11-03T02:18:24.299Z,100981.84
2022-11-03T02:20:55.283Z,100986.63
2022-11-03T02:23:26.538Z,100978.88
2022-11-03T02:25:54.141Z,100980.09
2022-11-03T02:28:25.370Z,100981.44
2022-11-03T02:30:58.254Z,100973.34
2022-11-03T02:33:30.965Z,100969.84
2022-11-03T02:36:15.975Z,100967.16
2022-11-03T02:38:48.009Z,100964.44
2022-11-03T02:41:16.094Z,100962.09
2022-11-03T02:43:43.648Z,100953.69
2022-11-03T02:46:12.209Z,100957.69
2022-11-03T02:48:38.594Z,100948.59
2022-11-03T02:51:05.126Z,100943.47
2022-11-03T02:53:35.078Z,100929.09
2022-11-03T02:56:03.600Z,100932.28
2022-11-03T02:59:05.254Z,100936.22
2022-11-03T03:01:46.738Z,100923.06
2022-11-03T03:04:26.941Z,100922.00
2022-11-03T03:06:57.263Z,100917.09
2022-11-03T03:09:29.327Z,100910.47
2022-11-03T03:11:58.699Z,100911.53
2022-11-03T03:14:28.785Z,100902.22
2022-11-03T03:17:04.882Z,100898.53
2022-11-03T03:19:43.511Z,100899.53
2022-11-03T03:22:16.834Z,100892.59
2022-11-03T03:25:06.495Z,100890.72
2022-11-03T03:27:34.258Z,100890.22
2022-11-03T03:30:05.400Z,100882.63
2022-11-03T03:32:34.072Z,100890.72
2022-11-03T03:35:02.998Z,100887.50
2022-11-03T03:37:30.800Z,100885.44
2022-11-03T03:40:00.409Z,100881.06
2022-11-03T03:42:28.731Z,100883.28
2022-11-03T03:44:55.816Z,100880.72
2022-11-03T03:47:25.345Z,100881.50
2022-11-03T03:49:51.783Z,100880.47
2022-11-03T03:52:18.731Z,100878.25
2022-11-03T03:54:45.242Z,100870.31
2022-11-03T03:57:15.710Z,100871.66
2022-11-03T03:59:42.839Z,100863.69
2022-11-03T04:02:09.342Z,100862.00
2022-11-03T04:04:35.763Z,100861.53
2022-11-03T04:07:20.850Z,100858.16
2022-11-03T04:09:47.133Z,100857.78
2022-11-03T04:12:32.466Z,100851.25
2022-11-03T04:15:17.158Z,100844.81
2022-11-03T04:18:03.200Z,100841.91
2022-11-03T04:20:48.429Z,100839.88
2022-11-03T04:23:14.728Z,100828.59
2022-11-03T04:25:42.400Z,100834.34
2022-11-03T04:28:12.853Z,100826.06
2022-11-03T04:30:39.151Z,100824.19
2022-11-03T04:33:12.323Z,100817.94
2022-11-03T04:35:38.615Z,100823.53
2022-11-03T04:38:09.833Z,100817.31
2022-11-03T04:40:36.229Z,100814.97
2022-11-03T04:43:04.725Z,100809.06
2022-11-03T04:45:33.950Z,100809.75
2022-11-03T04:48:01.801Z,100813.13
2022-11-03T04:50:28.119Z,100803.97
2022-11-03T04:52:55.368Z,100803.13
2022-11-03T04:55:21.747Z,100805.28
2022-11-03T04:57:48.177Z,100802.00
2022-11-03T05:00:18.671Z,100793.53
2022-11-03T05:02:48.056Z,100784.22
2022-11-03T05:05:17.631Z,100782.53
2022-11-03T05:07:43.997Z,100784.56
2022-11-03T05:10:12.928Z,100785.22
2022-11-03T05:12:39.200Z,100776.25
2022-11-03T05:15:08.461Z,100772.53
2022-11-03T05:17:36.992Z,100775.06
2022-11-03T05:20:03.732Z,100765.97
2022-11-03T05:22:33.743Z,100762.03
2022-11-03T05:25:22.335Z,100764.53
2022-11-03T05:27:48.598Z,100752.31
2022-11-03T05:30:15.018Z,100746.91
2022-11-03T05:32:42.154Z,100737.38
2022-11-03T05:35:21.436Z,100730.28
2022-11-03T05:37:47.901Z,100718.44
2022-11-03T05:40:24.850Z,100721.81
2022-11-03T05:42:58.767Z,100718.06
2022-11-03T05:45:34.847Z,100723.28
2022-11-03T05:48:02.164Z,100728.31
2022-11-03T05:50:29.595Z,100721.25
2022-11-03T05:53:02.050Z,100728.31
2022-11-03T05:55:33.142Z,100724.22
2022-11-03T05:58:00.992Z,100718.78
2022-11-03T06:00:28.755Z,100717.97
2022-11-03T06:02:55.777Z,100719.25
2022-11-03T06:05:23.093Z,100717.59
2022-11-03T06:07:49.901Z,100719.25
2022-11-03T06:10:27.280Z,100719.91
2022-11-03T06:12:55.891Z,100715.16
2022-11-03T06:15:27.123Z,100713.09
2022-11-03T06:17:53.674Z,100707.31
2022-11-03T06:20:21.287Z,100695.63
2022-11-03T06:22:49.325Z,100697.09
2022-11-03T06:25:18.719Z,100696.06
2022-11-03T06:27:45.045Z,100694.03
2022-11-03T06:30:24.787Z,100687.75
2022-11-03T06:32:51.184Z,100673.41
2022-11-03T06:35:17.841Z,100677.72
2022-11-03T06:37:44.856Z,100666.41
2022-11-03T06:40:11.145Z,100658.31
2022-11-03T06:42:40.911Z,100635.59
2022-11-03T06:45:25.913Z,100642.06
2022-11-03T06:47:53.121Z,100645.44
2022-11-03T06:50:19.485Z,100645.63
2022-11-03T06:55:21.418Z,100629.75
2022-11-03T06:57:48.191Z,100628.91
2022-11-03T07:00:35.542Z,100628.72
2022-11-03T07:03:08.236Z,100626.88
2022-11-03T07:05:35.362Z,100626.47
2022-11-03T07:08:14.314Z,100618.94
2022-11-03T07:10:40.601Z,100628.91
2022-11-03T07:13:14.756Z,100628.06
2022-11-03T07:15:42.033Z,100620.34
2022-11-03T07:18:22.778Z,100626.59
2022-11-03T07:20:49.275Z,100627.25
2022-11-03T07:23:19.005Z,100622.22
2022-11-03T07:25:56.595Z,100621.25
2022-11-03T07:28:26.526Z,100614.84
2022-11-03T07:30:52.855Z,100610.38
2022-11-03T07:33:26.550Z,100608.56
2022-11-03T07:36:14.548Z,100586.09
2022-11-03T07:38:42.572Z,100595.16
2022-11-03T07:41:12.431Z,100593.72
2022-11-03T07:43:38.848Z,100596.66
2022-11-03T07:46:05.817Z,100583.38
2022-11-03T07:48:41.839Z,100584.88
2022-11-03T07:51:46.869Z,100584.16
2022-11-03T07:54:16.434Z,100589.00
2022-11-03T07:56:45.325Z,100582.22
2022-11-03T07:59:15.711Z,100570.56
2022-11-03T08:01:52.074Z,100578.94
2022-11-03T08:04:20.341Z,100572.75
2022-11-03T08:06:47.082Z,100569.00
2022-11-03T08:09:13.527Z,100570.91
2022-11-03T08:11:39.939Z,100574.25
2022-11-03T08:14:06.240Z,100576.78
2022-11-03T08:16:32.529Z,100577.44
2022-11-03T08:18:58.895Z,100574.50
2022-11-03T08:21:25.304Z,100569.06
2022-11-03T08:23:52.315Z,100564.09
2022-11-03T08:26:18.890Z,100563.28
2022-11-03T08:28:45.424Z,100553.69
2022-11-03T08:31:13.116Z,100560.81
2022-11-03T08:33:39.693Z,100556.25
2022-11-03T08:36:06.291Z,100554.63
2022-11-03T08:38:32.624Z,100549.00
2022-11-03T08:40:58.980Z,100533.09
2022-11-03T08:43:25.361Z,100535.84
2022-11-03T08:45:54.690Z,100531.06
2022-11-03T08:48:27.100Z,100525.63
2022-11-03T08:50:57.008Z,100516.25
2022-11-03T08:53:24.539Z,100508.91
2022-11-03T08:55:50.872Z,100502.47
2022-11-03T08:58:17.219Z,100500.13
2022-11-03T09:00:43.544Z,100493.66
2022-11-03T09:03:09.976Z,100494.09
2022-11-03T09:05:36.575Z,100499.31
2022-11-03T09:10:49.768Z,100497.44
2022-11-03T09:13:16.152Z,100485.72
2022-11-03T09:15:42.537Z,100481.50
2022-11-03T09:18:09.238Z,100484.88
2022-11-03T09:20:35.866Z,100478.16
2022-11-03T09:23:02.421Z,100469.41
2022-11-03T09:25:28.938Z,100462.06
2022-11-03T09:27:58.218Z,100454.75
2022-11-03T09:30:24.631Z,100447.63
2022-11-03T09:32:51.324Z,100438.88
2022-11-03T09:35:17.763Z,100423.38
2022-11-03T09:37:44.152Z,100411.25
2022-11-03T09:40:11.557Z,100414.59
2022-11-03T09:42:38.844Z,100405.81
2022-11-03T09:45:07.675Z,100399.09
2022-11-03T09:47:35.929Z,100405.81
2022-11-03T09:50:02.806Z,100401.41
2022-11-03T09:52:29.292Z,100379.34
2022-11-03T09:54:55.815Z,100368.25
2022-11-03T09:57:22.670Z,100367.75
2022-11-03T09:59:50.502Z,100360.28
2022-11-03T10:02:22.950Z,100348.59
2022-11-03T10:04:50.936Z,100339.41
2022-11-03T10:07:17.337Z,100335.47
2022-11-03T10:09:48.583Z,100341.72
2022-11-03T10:12:14.979Z,100354.91
2022-11-03T10:14:42.739Z,100350.91
2022-11-03T10:17:15.177Z,100363.66
2022-11-03T10:19:41.485Z,100355.28
2022-11-03T10:22:07.906Z,100353.56
2022-11-03T10:24:34.244Z,100349.84
2022-11-03T10:27:00.575Z,100338.75
2022-11-03T10:29:27.751Z,100333.09
2022-11-03T10:31:55.402Z,100321.13
2022-11-03T10:34:25.931Z,100314.22
2022-11-03T10:37:12.161Z,100301.00
2022-11-03T10:39:38.833Z,100291.63
2022-11-03T10:42:05.161Z,100288.72
2022-11-03T10:44:31.606Z,100282.69
2022-11-03T10:46:59.561Z,100272.88
2022-11-03T10:49:27.185Z,100276.63
2022-11-03T10:51:54.578Z,100267.44
2022-11-03T10:54:24.579Z,100257.38
2022-11-03T10:56:52.247Z,100237.97
2022-11-03T10:59:24.248Z,100213.34
2022-11-03T11:01:51.140Z,100209.78
2022-11-03T11:04:18.715Z,100210.25
2022-11-03T11:06:46.208Z,100213.59
2022-11-03T11:09:14.082Z,100216.69
2022-11-03T11:11:57.926Z,100224.03
2022-11-03T11:14:28.037Z,100231.28
2022-11-03T11:16:55.583Z,100249.06
2022-11-03T11:19:22.889Z,100224.63
2022-11-03T11:21:57.157Z,100207.25
2022-11-03T11:24:42.354Z,100207.88
2022-11-03T11:27:27.584Z,100207.66
2022-11-03T11:29:54.393Z,100223.50
2022-11-03T11:32:39.068Z,100210.97
2022-11-03T11:35:09.990Z,100201.97
2022-11-03T11:37:37.084Z,100208.03
2022-11-03T11:40:11.401Z,100193.81
2022-11-03T11:42:57.839Z,100203.03
2022-11-03T11:45:43.044Z,100210.38
2022-11-03T11:48:18.958Z,100205.97
2022-11-03T11:50:46.152Z,100203.25
2022-11-03T11:53:13.943Z,100188.78
2022-11-03T11:55:52.489Z,100164.09
2022-11-03T11:58:31.488Z,100151.19
2022-11-03T12:01:02.273Z,100152.69
2022-11-03T12:03:30.911Z,100142.09
2022-11-03T12:05:57.259Z,100124.53
2022-11-03T12:08:31.152Z,100111.03
2022-11-03T12:10:59.092Z,100102.66
2022-11-03T12:13:43.849Z,100100.59
2022-11-03T12:16:29.012Z,100091.56
2022-11-03T12:18:55.436Z,100078.56
2022-11-03T12:21:40.548Z,100076.47
2022-11-03T12:24:45.432Z,100083.13
2022-11-03T12:27:20.615Z,100067.22
2022-11-03T12:29:47.044Z,100076.19
2022-11-03T12:32:32.408Z,100075.81
2022-11-03T12:34:59.996Z,100066.59
2022-11-03T12:37:26.356Z,100058.00
2022-11-03T12:39:52.764Z,100059.22
2022-11-03T12:42:20.104Z,100039.16
2022-11-03T12:44:46.651Z,100038.31
2022-11-03T12:47:13.105Z,100041.25
2022-11-03T12:49:39.383Z,100021.69
2022-11-03T12:52:08.303Z,100012.56
2022-11-03T12:54:34.914Z,99997.69
2022-11-03T12:57:01.268Z,99996.25
2022-11-03T12:59:27.561Z,99989.13
2022-11-03T13:01:54.213Z,99973.47
2022-11-03T13:04:21.047Z,99966.97
2022-11-03T13:06:47.355Z,99958.81
2022-11-03T13:09:13.678Z,99952.56
2022-11-03T13:11:58.765Z,99946.91
2022-11-03T13:14:26.500Z,99930.59
2022-11-03T13:16:52.847Z,99930.16
2022-11-03T13:19:19.223Z,99925.53
2022-11-03T13:21:45.711Z,99918.22
2022-11-03T13:24:12.102Z,99910.44
2022-11-03T13:26:38.444Z,99901.03
2022-11-03T13:29:04.752Z,99896.25
2022-11-03T13:31:31.410Z,99896.25
2022-11-03T13:33:57.739Z,99892.13
2022-11-03T13:36:24.199Z,99895.44
2022-11-03T13:38:50.890Z,99873.09
2022-11-03T13:41:17.181Z,99869.44
2022-11-03T13:43:43.488Z,99858.59
2022-11-03T13:46:09.772Z,99848.78
2022-11-03T13:51:22.561Z,99840.34
2022-11-03T13:59:24.832Z,99832.34
2022-11-03T14:07:07.018Z,99825.47
2022-11-03T14:09:33.542Z,99806.25
2022-11-03T14:12:18.679Z,99811.22
2022-11-03T14:14:45.301Z,99800.94
2022-11-03T14:17:12.280Z,99808.50
2022-11-03T14:19:44.858Z,99809.09
2022-11-03T14:22:13.843Z,99806.47
2022-11-03T14:24:40.364Z,99804.34
2022-11-03T14:27:06.969Z,99809.53
2022-11-03T14:29:33.588Z,99819.22
2022-11-03T14:31:59.955Z,99834.28
2022-11-03T14:34:26.402Z,99834.72
2022-11-03T14:36:52.868Z,99823.09
2022-11-03T14:39:19.187Z,99814.97
2022-11-03T14:42:03.838Z,99810.81
2022-11-03T14:44:38.150Z,99815.63
2022-11-03T14:47:06.572Z,99801.00
2022-11-03T14:49:34.102Z,99781.41
2022-11-03T14:52:01.934Z,99781.00
2022-11-03T14:54:28.865Z,99767.31
2022-11-03T14:56:55.445Z,99771.66
2022-11-03T14:59:21.983Z,99788.19
2022-11-03T15:01:49.393Z,99787.13
2022-11-03T15:04:15.887Z,99794.91
2022-11-03T15:06:42.300Z,99779.06
2022-11-03T15:11:41.108Z,99770.44
2022-11-03T15:14:07.536Z,99766.09
2022-11-03T15:16:36.055Z,99760.97
2022-11-03T15:19:05.834Z,99758.03
2022-11-03T15:21:32.410Z,99744.72
2022-11-03T15:26:45.274Z,99733.72
2022-11-03T15:29:11.614Z,99723.69
2022-11-03T15:31:39.172Z,99711.63
2022-11-03T15:34:08.801Z,99709.38
2022-11-03T15:36:35.435Z,99687.91
2022-11-03T15:39:02.255Z,99688.13
2022-11-03T15:41:28.656Z,99675.47
2022-11-03T15:43:54.982Z,99663.56
2022-11-03T15:46:21.296Z,99668.25
2022-11-03T15:48:49.111Z,99664.47
2022-11-03T15:51:15.584Z,99666.13
2022-11-03T15:53:42.041Z,99685.72
2022-11-03T15:56:08.555Z,99677.81
2022-11-03T15:58:35.016Z,99674.72
2022-11-03T16:01:05.148Z,99666.13
2022-11-03T16:03:32.422Z,99661.53
2022-11-03T16:05:59.087Z,99667.19
2022-11-03T16:08:25.540Z,99667.78
2022-11-03T16:10:56.455Z,99659.00
2022-11-03T16:13:24.754Z,99665.22
2022-11-03T16:15:51.401Z,99666.91
2022-11-03T16:18:17.808Z,99659.56
2022-11-03T16:20:44.168Z,99661.38
2022-11-03T16:23:10.584Z,99657.59
2022-11-03T16:25:36.984Z,99647.16
2022-11-03T16:28:03.357Z,99654.22
2022-11-03T16:30:29.813Z,99636.06
2022-11-03T16:32:56.122Z,99641.84
2022-11-03T16:35:22.499Z,99635.84
2022-11-03T16:37:49.601Z,99631.63
2022-11-03T16:40:19.357Z,99622.56
2022-11-03T16:42:46.315Z,99632.97
2022-11-03T16:45:18.301Z,99615.63
2022-11-03T16:47:45.361Z,99617.06
2022-11-03T16:50:11.675Z,99608.09
2022-11-03T16:52:38.083Z,99608.91
2022-11-03T16:55:04.964Z,99608.09
2022-11-03T16:57:31.434Z,99613.53
2022-11-03T16:59:57.923Z,99607.72
2022-11-03T17:02:24.752Z,99598.50
2022-11-03T17:04:51.283Z,99605.84
2022-11-03T17:07:17.565Z,99593.53
2022-11-03T17:09:43.932Z,99589.56
2022-11-03T17:12:10.348Z,99585.56
2022-11-03T17:14:36.771Z,99580.97
2022-11-03T17:17:03.088Z,99590.06
2022-11-03T17:19:29.471Z,99581.69
2022-11-03T17:21:55.820Z,99579.56
2022-11-03T17:24:22.147Z,99562.47
2022-11-03T17:26:51.361Z,99559.16
2022-11-03T17:29:19.136Z,99563.38
2022-11-03T17:31:45.484Z,99538.97
2022-11-03T17:34:11.918Z,99538.59
2022-11-03T17:36:38.400Z,99539.66
2022-11-03T17:39:04.711Z,99537.63
2022-11-03T17:41:31.084Z,99539.50
2022-11-03T17:43:57.563Z,99534.91
2022-11-03T17:46:24.010Z,99539.75
2022-11-03T17:48:50.463Z,99540.56
2022-11-03T17:51:16.811Z,99529.94
2022-11-03T17:53:43.201Z,99525.94
2022-11-03T17:56:31.350Z,99535.59
2022-11-03T17:58:58.041Z,99531.97
2022-11-03T18:01:25.775Z,99536.34
2022-11-03T18:03:52.674Z,99540.56
2022-11-03T18:06:20.394Z,99545.31
2022-11-03T18:08:47.412Z,99538.59
2022-11-03T18:11:35.012Z,99531.91
2022-11-03T18:14:02.536Z,99532.25
2022-11-03T18:16:30.455Z,99519.88
2022-11-03T18:18:56.976Z,99513.41
2022-11-03T18:21:23.758Z,99515.03
2022-11-03T18:23:50.291Z,99513.97
2022-11-03T18:26:18.030Z,99514.81
2022-11-03T18:28:44.519Z,99511.03
2022-11-03T18:31:15.279Z,99506.66
2022-11-03T18:33:41.661Z,99515.63
2022-11-03T18:36:10.031Z,99503.97
2022-11-03T18:38:37.141Z,99503.13
2022-11-03T18:41:23.444Z,99503.56
2022-11-03T18:43:49.841Z,99486.69
2022-11-03T18:46:16.248Z,99508.44
2022-11-03T18:48:42.560Z,99512.19
2022-11-03T18:51:08.864Z,99508.88
2022-11-03T18:53:35.205Z,99510.75
2022-11-03T18:56:01.553Z,99505.00
2022-11-03T18:58:27.848Z,99500.38
2022-11-03T19:00:54.217Z,99501.22
2022-11-03T19:03:22.022Z,99498.97
2022-11-03T19:05:50.262Z,99493.16
2022-11-03T19:08:25.612Z,99502.50
2022-11-03T19:10:52.658Z,99494.59
2022-11-03T19:13:25.030Z,99489.97
2022-11-03T19:15:51.602Z,99486.69
2022-11-03T19:18:17.907Z,99473.34
2022-11-03T19:20:44.241Z,99469.78
2022-11-03T19:23:10.766Z,99462.72
2022-11-03T19:25:38.358Z,99474.38
2022-11-03T19:28:05.354Z,99464.03
2022-11-03T19:30:31.822Z,99459.88
2022-11-03T19:32:58.197Z,99453.63
2022-11-03T19:35:35.009Z,99451.72
2022-11-03T19:38:03.861Z,99445.13
2022-11-03T19:40:30.222Z,99443.56
2022-11-03T19:42:56.963Z,99436.47
2022-11-03T19:45:24.099Z,99430.69
2022-11-03T19:50:43.127Z,99431.75
2022-11-03T19:53:13.712Z,99454.50
2022-11-03T19:55:41.947Z,99458.53
2022-11-03T19:58:13.529Z,99461.47
2022-11-03T20:00:40.867Z,99456.38
2022-11-03T20:03:07.288Z,99450.16
2022-11-03T20:05:33.694Z,99448.25
2022-11-03T20:08:00.974Z,99435.28
2022-11-03T20:10:30.398Z,99442.94
2022-11-03T20:13:00.403Z,99435.03
2022-11-03T20:15:26.769Z,99433.00
2022-11-03T20:17:53.271Z,99433.84
2022-11-03T20:20:21.231Z,99426.88
2022-11-03T20:22:52.259Z,99432.88
2022-11-03T20:25:20.823Z,99423.13
2022-11-03T20:27:47.327Z,99427.34
2022-11-03T20:30:15.193Z,99425.25
2022-11-03T20:32:41.589Z,99436.53
2022-11-03T20:35:09.608Z,99439.09
2022-11-03T20:37:35.974Z,99449.38
2022-11-03T20:40:02.560Z,99445.13
2022-11-03T20:42:28.942Z,99442.44
2022-11-03T20:44:55.318Z,99448.66
2022-11-03T20:47:21.645Z,99440.97
2022-11-03T20:49:48.401Z,99446.78
2022-11-03T20:52:15.283Z,99448.88
2022-11-03T20:54:43.056Z,99452.66
2022-11-03T20:57:11.573Z,99443.34
2022-11-03T20:59:38.870Z,99451.59
2022-11-03T21:02:13.013Z,99457.25
2022-11-03T21:04:40.343Z,99458.94
2022-11-03T21:07:06.736Z,99462.66
2022-11-03T21:09:33.114Z,99444.41
2022-11-03T21:11:59.469Z,99460.56
2022-11-03T21:14:27.134Z,99467.63
2022-11-03T21:17:12.159Z,99466.38
2022-11-03T21:19:57.386Z,99466.38
2022-11-03T21:25:21.658Z,99452.22
2022-11-03T21:27:49.534Z,99468.25
2022-11-03T21:30:16.707Z,99459.72
2022-11-03T21:32:43.314Z,99466.84
2022-11-03T21:35:13.485Z,99475.88
2022-11-03T21:37:39.761Z,99469.84
2022-11-03T21:40:06.548Z,99487.16
2022-11-03T21:42:51.603Z,99476.94
2022-11-03T21:45:19.973Z,99478.81
2022-11-03T21:48:14.335Z,99482.59
2022-11-03T21:50:41.523Z,99481.13
2022-11-03T21:53:08.385Z,99494.47
2022-11-03T21:55:35.469Z,99476.31
2022-11-03T21:58:02.463Z,99479.94
2022-11-03T22:00:28.975Z,99482.66
2022-11-03T22:02:55.367Z,99492.06
2022-11-03T22:05:21.809Z,99501.50
2022-11-03T22:07:48.123Z,99502.91
2022-11-03T22:10:14.530Z,99502.06
2022-11-03T22:12:40.834Z,99497.28
2022-11-03T22:15:26.023Z,99495.63
2022-11-03T22:17:52.600Z,99512.13
2022-11-03T22:20:37.743Z,99514.44
2022-11-03T22:23:22.738Z,99525.91
2022-11-03T22:26:07.506Z,99528.75
2022-11-03T22:28:33.875Z,99534.16
2022-11-03T22:31:22.250Z,99545.44
2022-11-03T22:34:07.644Z,99550.19
2022-11-03T22:36:33.930Z,99562.78
2022-11-03T22:39:19.102Z,99567.00
2022-11-03T22:42:06.534Z,99571.03
2022-11-03T22:44:51.967Z,99554.25
2022-11-03T22:47:18.998Z,99585.31
2022-11-03T22:49:45.552Z,99585.16
2022-11-03T22:52:11.993Z,99585.38
2022-11-03T22:54:38.378Z,99587.94
2022-11-03T22:57:04.824Z,99582.50
2022-11-03T22:59:31.258Z,99577.91
2022-11-03T23:01:57.713Z,99575.44
2022-11-03T23:04:24.314Z,99576.25
2022-11-03T23:06:50.686Z,99580.03
2022-11-03T23:09:17.523Z,99575.03
2022-11-03T23:11:43.889Z,99587.97
2022-11-03T23:14:10.860Z,99603.25
2022-11-03T23:16:38.703Z,99614.25
2022-11-03T23:19:24.122Z,99627.78
2022-11-03T23:21:51.715Z,99633.81
2022-11-03T23:24:42.176Z,99637.56
2022-11-03T23:27:12.272Z,99636.72
2022-11-03T23:29:38.795Z,99654.09
2022-11-03T23:32:05.263Z,99650.56
2022-11-03T23:34:35.016Z,99644.75
2022-11-03T23:37:02.082Z,99646.84
2022-11-03T23:39:28.430Z,99652.50
2022-11-03T23:41:54.780Z,99659.56
2022-11-03T23:44:21.090Z,99666.03
2022-11-03T23:47:06.199Z,99667.09
2022-11-03T23:49:32.534Z,99664.38
2022-11-03T23:51:59.059Z,99668.13
2022-11-03T23:54:27.248Z,99668.34
2022-11-03T23:57:12.446Z,99670.44
2022-11-03T23:59:38.810Z,99670.25
